Time;durP1;ratioP1;P1;durP2;ratioP2;P2;SDS_P1;SDS_P2;PMS_P1;PMS_P2;Temp;Humidity;BMP_temperature;BMP_pressure;BME280_temperature;BME280_humidity;BME280_pressure;Samples;Min_cycle;Max_cycle;Signal;HPM_P1;HPM_P2
2024/01/09 00:01:44;;;;;;;38.13;22.77;;;-4.90;75.00;;;;;;5093470;28;20032;-69
2024/01/09 00:04:11;;;;;;;36.65;22.83;;;-4.90;75.10;;;;;;5094681;28;20020;-70
2024/01/09 00:06:37;;;;;;;37.00;23.33;;;-4.90;75.30;;;;;;5094392;28;20080;-70
2024/01/09 00:09:03;;;;;;;35.40;23.48;;;-4.90;75.20;;;;;;5093550;28;20107;-70
2024/01/09 00:11:29;;;;;;;39.95;24.55;;;-4.90;75.40;;;;;;5092927;28;20525;-70
2024/01/09 00:13:58;;;;;;;34.33;22.67;;;-5.00;75.50;;;;;;5093282;28;20026;-69
2024/01/09 00:16:23;;;;;;;32.00;22.02;;;-4.90;75.50;;;;;;5094390;28;20028;-69
2024/01/09 00:18:53;;;;;;;37.03;24.10;;;-5.00;75.50;;;;;;5094523;28;20095;-69
2024/01/09 00:21:22;;;;;;;37.95;24.30;;;-5.00;75.70;;;;;;5093900;28;20028;-69
2024/01/09 00:23:48;;;;;;;35.97;23.15;;;-5.00;75.90;;;;;;5094631;28;20028;-68
2024/01/09 00:26:14;;;;;;;34.63;23.30;;;-5.00;75.40;;;;;;5094377;28;20131;-70
2024/01/09 00:28:40;;;;;;;38.00;22.75;;;-4.90;75.10;;;;;;5093699;28;20468;-70
2024/01/09 00:31:05;;;;;;;33.10;22.77;;;-5.00;74.50;;;;;;5092979;28;20062;-69
2024/01/09 00:33:32;;;;;;;37.63;22.50;;;-5.00;74.90;;;;;;5093873;28;20024;-69
2024/01/09 00:35:58;;;;;;;35.22;22.75;;;-5.00;75.30;;;;;;5092772;28;20119;-70
2024/01/09 00:38:24;;;;;;;36.92;23.45;;;-5.00;75.60;;;;;;5093652;28;20102;-70
2024/01/09 00:40:49;;;;;;;36.08;22.85;;;-5.00;75.70;;;;;;5093649;28;20052;-69
2024/01/09 00:43:15;;;;;;;35.10;22.90;;;-5.00;75.40;;;;;;5092362;28;20046;-70
2024/01/09 00:45:41;;;;;;;34.97;22.27;;;-5.00;74.80;;;;;;5093228;28;20024;-69
2024/01/09 00:48:07;;;;;;;34.38;22.50;;;-5.00;74.70;;;;;;5092487;28;20043;-70
2024/01/09 00:50:33;;;;;;;35.58;23.52;;;-5.00;75.00;;;;;;5092060;28;20110;-69
2024/01/09 00:52:58;;;;;;;38.58;23.17;;;-5.00;74.90;;;;;;5093819;28;20055;-69
2024/01/09 00:55:24;;;;;;;35.80;22.52;;;-5.00;75.00;;;;;;5093006;28;20028;-70
2024/01/09 00:57:49;;;;;;;35.33;22.38;;;-5.00;75.00;;;;;;5093981;28;20032;-70
2024/01/09 01:00:16;;;;;;;32.58;21.77;;;-5.00;75.10;;;;;;5093669;28;20048;-69
2024/01/09 01:02:41;;;;;;;37.33;23.48;;;-5.00;75.20;;;;;;5092986;28;20046;-70
2024/01/09 01:05:07;;;;;;;33.85;23.08;;;-5.00;75.50;;;;;;5093555;28;20028;-70
2024/01/09 01:07:32;;;;;;;34.95;23.58;;;-5.00;75.60;;;;;;5093258;28;20510;-70
2024/01/09 01:09:58;;;;;;;35.88;22.55;;;-5.00;76.10;;;;;;5093539;28;20047;-69
2024/01/09 01:12:24;;;;;;;36.00;23.85;;;-5.00;75.80;;;;;;5092780;28;20465;-70
2024/01/09 01:14:49;;;;;;;34.88;23.23;;;-5.10;75.90;;;;;;5093456;28;20023;-70
2024/01/09 01:17:15;;;;;;;39.72;25.05;;;-5.00;76.00;;;;;;5093076;28;20093;-71
2024/01/09 01:19:40;;;;;;;38.58;23.90;;;-5.00;76.20;;;;;;5091519;28;20031;-70
2024/01/09 01:22:06;;;;;;;36.03;23.65;;;-5.00;76.00;;;;;;5093238;28;20061;-71
2024/01/09 01:24:32;;;;;;;35.97;23.83;;;-5.00;76.20;;;;;;5093108;28;20514;-69
2024/01/09 01:26:57;;;;;;;36.92;23.02;;;-5.10;76.30;;;;;;5093484;28;20470;-68
2024/01/09 01:29:23;;;;;;;39.53;23.52;;;-5.10;76.40;;;;;;5094411;28;20051;-70
2024/01/09 01:31:49;;;;;;;35.38;23.40;;;-5.00;75.80;;;;;;5107629;28;20122;-70
2024/01/09 01:34:15;;;;;;;36.90;24.10;;;-5.10;75.50;;;;;;5113307;28;20028;-70
2024/01/09 01:36:40;;;;;;;36.60;23.83;;;-5.00;75.50;;;;;;5110750;28;20020;-70
2024/01/09 01:39:07;;;;;;;37.05;23.08;;;-5.10;75.40;;;;;;5092780;28;20024;-70
2024/01/09 01:41:33;;;;;;;37.17;23.85;;;-5.10;75.20;;;;;;5092201;28;20031;-70
2024/01/09 01:43:58;;;;;;;38.22;23.55;;;-5.20;75.10;;;;;;5092914;28;20028;-69
2024/01/09 01:46:24;;;;;;;35.42;23.17;;;-5.20;75.30;;;;;;5092931;28;20036;-69
2024/01/09 01:48:50;;;;;;;39.00;25.13;;;-5.20;75.20;;;;;;5092424;28;20146;-69
2024/01/09 01:51:16;;;;;;;35.72;23.10;;;-5.10;74.90;;;;;;5092537;28;20060;-70
2024/01/09 01:53:42;;;;;;;35.13;22.35;;;-5.20;74.80;;;;;;5092305;28;20107;-69
2024/01/09 01:56:07;;;;;;;36.85;23.33;;;-5.20;75.00;;;;;;5092755;28;20035;-69
2024/01/09 01:58:34;;;;;;;36.03;23.88;;;-5.20;75.30;;;;;;5091795;28;20024;-70
2024/01/09 02:01:00;;;;;;;37.70;23.98;;;-5.20;75.50;;;;;;5092391;28;20066;-68
2024/01/09 02:03:27;;;;;;;36.75;22.90;;;-5.20;75.50;;;;;;5092649;28;20027;-70
2024/01/09 02:05:55;;;;;;;37.65;23.50;;;-5.20;75.60;;;;;;5092574;28;20024;-69
2024/01/09 02:08:24;;;;;;;36.42;23.63;;;-5.20;75.70;;;;;;5091661;28;20024;-70
2024/01/09 02:10:51;;;;;;;38.53;23.23;;;-5.20;75.30;;;;;;5092144;28;20028;-70
2024/01/09 02:13:16;;;;;;;35.60;24.25;;;-5.30;75.30;;;;;;5092275;28;20074;-72
2024/01/09 02:15:42;;;;;;;38.00;24.02;;;-5.30;75.50;;;;;;5088832;28;20094;-70
2024/01/09 02:18:08;;;;;;;38.05;22.98;;;-5.30;75.80;;;;;;5091228;28;20024;-69
2024/01/09 02:20:34;;;;;;;37.50;23.92;;;-5.40;75.90;;;;;;5090013;28;20104;-69
2024/01/09 02:23:00;;;;;;;34.58;23.65;;;-5.40;76.00;;;;;;5089781;28;20476;-69
2024/01/09 02:25:27;;;;;;;36.08;22.92;;;-5.40;76.30;;;;;;5092735;28;20107;-70
2024/01/09 02:28:07;;;;;;;35.33;24.40;;;-5.30;76.50;;;;;;5091861;28;20043;-69
2024/01/09 02:30:33;;;;;;;37.10;23.88;;;-5.40;76.00;;;;;;5090599;28;20024;-69
2024/01/09 02:32:59;;;;;;;36.30;23.65;;;-5.40;75.70;;;;;;5091081;28;20032;-70
2024/01/09 02:35:25;;;;;;;34.33;23.50;;;-5.40;75.50;;;;;;5090855;28;20024;-70
2024/01/09 02:37:51;;;;;;;36.97;24.52;;;-5.40;75.30;;;;;;5091626;28;20031;-70
2024/01/09 02:40:17;;;;;;;36.47;23.23;;;-5.40;75.70;;;;;;5092120;28;20077;-70
2024/01/09 02:42:42;;;;;;;39.80;24.40;;;-5.50;75.80;;;;;;5090204;28;20032;-70
2024/01/09 02:45:10;;;;;;;35.92;23.77;;;-5.50;76.20;;;;;;5090881;28;20020;-70
2024/01/09 02:47:35;;;;;;;37.70;24.42;;;-5.50;76.40;;;;;;5091865;28;20069;-70
2024/01/09 02:50:01;;;;;;;41.63;24.88;;;-5.50;76.60;;;;;;5091630;28;20107;-71
2024/01/09 02:52:26;;;;;;;33.67;23.08;;;-5.50;77.00;;;;;;5091997;28;20118;-69
2024/01/09 02:54:52;;;;;;;37.25;25.42;;;-5.50;77.10;;;;;;5091626;28;20029;-70
2024/01/09 02:57:18;;;;;;;33.38;22.95;;;-5.50;77.20;;;;;;5090544;28;20074;-70
2024/01/09 02:59:44;;;;;;;34.75;23.48;;;-5.50;76.70;;;;;;5090166;28;20044;-70
2024/01/09 03:02:09;;;;;;;34.88;22.85;;;-5.60;76.40;;;;;;5092126;28;20522;-69
2024/01/09 03:04:35;;;;;;;35.67;23.08;;;-5.60;76.60;;;;;;5090340;28;20114;-69
2024/01/09 03:07:01;;;;;;;38.05;23.67;;;-5.60;76.50;;;;;;5092315;28;20028;-69
2024/01/09 03:09:26;;;;;;;34.13;21.73;;;-5.60;76.10;;;;;;5091774;28;20496;-70
2024/01/09 03:11:53;;;;;;;36.10;22.55;;;-5.60;76.20;;;;;;5091506;28;20373;-70
2024/01/09 03:14:19;;;;;;;34.25;22.38;;;-5.60;75.90;;;;;;5090570;28;20487;-70
2024/01/09 03:16:48;;;;;;;36.72;22.67;;;-5.60;76.10;;;;;;5091520;28;20025;-69
2024/01/09 03:19:14;;;;;;;36.38;23.08;;;-5.60;76.10;;;;;;5092010;28;20020;-70
2024/01/09 03:21:40;;;;;;;33.63;22.50;;;-5.60;75.90;;;;;;5095141;28;20123;-69
2024/01/09 03:24:05;;;;;;;38.88;23.27;;;-5.60;76.40;;;;;;5095295;28;20425;-69
2024/01/09 03:26:31;;;;;;;35.55;22.98;;;-5.60;75.90;;;;;;5095282;28;20473;-70
2024/01/09 03:28:58;;;;;;;36.03;23.83;;;-5.60;76.10;;;;;;5094761;28;20039;-68
2024/01/09 03:31:24;;;;;;;35.95;23.02;;;-5.60;76.10;;;;;;5113455;28;20495;-69
2024/01/09 03:33:50;;;;;;;34.42;22.45;;;-5.60;76.20;;;;;;5115028;28;20138;-69
2024/01/09 03:36:17;;;;;;;36.70;23.58;;;-5.70;76.40;;;;;;5115692;28;20024;-69
2024/01/09 03:38:44;;;;;;;33.15;22.75;;;-5.60;76.50;;;;;;5115260;28;20159;-70
2024/01/09 03:41:10;;;;;;;36.55;23.90;;;-5.60;76.50;;;;;;5114201;28;20497;-70
2024/01/09 03:43:36;;;;;;;36.45;22.92;;;-5.70;76.50;;;;;;5104389;28;20032;-71
2024/01/09 03:46:01;;;;;;;37.10;23.60;;;-5.70;76.60;;;;;;5094903;28;20044;-70
2024/01/09 03:48:27;;;;;;;41.97;24.75;;;-5.70;76.50;;;;;;5094797;28;20032;-70
2024/01/09 03:50:53;;;;;;;36.38;24.50;;;-5.70;76.80;;;;;;5093385;28;20035;-70
2024/01/09 03:53:19;;;;;;;36.92;23.65;;;-5.70;76.90;;;;;;5094336;28;20024;-71
2024/01/09 03:55:45;;;;;;;36.70;23.88;;;-5.80;76.90;;;;;;5094811;28;20354;-70
2024/01/09 03:58:11;;;;;;;40.30;23.85;;;-5.80;77.00;;;;;;5094856;28;20024;-70
2024/01/09 04:00:40;;;;;;;38.88;24.38;;;-5.80;77.10;;;;;;5094513;28;20131;-71
2024/01/09 04:03:06;;;;;;;38.45;23.13;;;-5.80;77.40;;;;;;5093488;28;20034;-71
2024/01/09 04:05:32;;;;;;;41.88;24.45;;;-5.80;77.30;;;;;;5093371;28;20111;-70
2024/01/09 04:07:58;;;;;;;35.35;23.40;;;-5.80;77.30;;;;;;5094022;28;20047;-70
2024/01/09 04:10:24;;;;;;;39.28;23.90;;;-5.80;77.30;;;;;;5093257;28;20472;-69
2024/01/09 04:12:49;;;;;;;34.47;22.45;;;-5.80;76.80;;;;;;5094232;28;20050;-70
2024/01/09 04:15:15;;;;;;;37.58;22.00;;;-5.80;77.00;;;;;;5094552;28;20141;-70
2024/01/09 04:17:41;;;;;;;40.05;25.00;;;-5.80;77.20;;;;;;5092711;28;20024;-70
2024/01/09 04:20:08;;;;;;;33.53;22.83;;;-5.80;77.10;;;;;;5092993;28;20032;-69
2024/01/09 04:22:34;;;;;;;37.53;23.73;;;-5.80;77.20;;;;;;5094373;28;20453;-69
2024/01/09 04:24:59;;;;;;;38.53;24.05;;;-5.70;77.30;;;;;;5075774;28;20020;-69
2024/01/09 04:27:25;;;;;;;35.75;22.95;;;-5.80;77.10;;;;;;5094283;28;20055;-70
2024/01/09 04:29:50;;;;;;;39.80;24.05;;;-5.80;76.90;;;;;;5093612;28;20070;-70
2024/01/09 04:32:16;;;;;;;37.00;24.65;;;-5.80;76.80;;;;;;5092384;28;20060;-69
2024/01/09 04:34:43;;;;;;;41.95;24.65;;;-5.80;76.90;;;;;;5099379;28;20441;-70
2024/01/09 04:37:08;;;;;;;36.83;24.00;;;-5.90;77.30;;;;;;5101011;28;20119;-70
2024/01/09 04:39:34;;;;;;;37.75;23.55;;;-5.90;77.70;;;;;;5097273;28;20095;-71
2024/01/09 04:42:00;;;;;;;37.92;23.85;;;-5.90;77.60;;;;;;5105596;28;20110;-70
2024/01/09 04:44:25;;;;;;;35.50;22.42;;;-5.90;76.70;;;;;;5101801;28;20127;-70
2024/01/09 04:46:51;;;;;;;37.25;23.08;;;-6.00;76.80;;;;;;5101183;28;20020;-71
2024/01/09 04:49:17;;;;;;;37.10;23.60;;;-6.00;77.10;;;;;;5104004;28;20024;-71
2024/01/09 04:51:42;;;;;;;39.15;23.08;;;-6.00;77.20;;;;;;5103617;28;20423;-71
2024/01/09 04:54:08;;;;;;;36.58;22.33;;;-6.00;76.80;;;;;;5104075;28;20481;-72
2024/01/09 04:56:33;;;;;;;35.28;22.40;;;-6.00;76.90;;;;;;5097097;28;20085;-71
2024/01/09 04:58:59;;;;;;;36.35;23.10;;;-6.00;76.60;;;;;;5102417;28;20081;-71
2024/01/09 05:01:25;;;;;;;40.22;24.67;;;-6.00;76.40;;;;;;5100474;28;20044;-72
2024/01/09 05:03:53;;;;;;;37.22;23.50;;;-5.90;76.50;;;;;;5102382;28;20019;-71
2024/01/09 05:06:19;;;;;;;35.67;23.10;;;-5.90;76.60;;;;;;5099673;28;20031;-71
2024/01/09 05:08:46;;;;;;;39.30;23.40;;;-5.90;76.70;;;;;;5102131;28;20060;-71
2024/01/09 05:11:12;;;;;;;36.95;22.67;;;-5.90;76.50;;;;;;5102723;28;20032;-72
2024/01/09 05:13:37;;;;;;;35.47;23.10;;;-5.90;76.00;;;;;;5100542;28;20031;-71
2024/01/09 05:16:04;;;;;;;33.25;21.75;;;-5.90;76.10;;;;;;5092952;28;20055;-70
2024/01/09 05:18:30;;;;;;;37.38;24.13;;;-5.90;76.20;;;;;;5093306;28;20111;-70
2024/01/09 05:20:56;;;;;;;38.35;23.73;;;-5.90;76.30;;;;;;5091459;28;20411;-72
2024/01/09 05:23:22;;;;;;;34.20;22.58;;;-5.90;76.10;;;;;;5093289;28;20059;-71
2024/01/09 05:25:48;;;;;;;38.42;23.55;;;-5.90;76.30;;;;;;5102724;28;20153;-72
2024/01/09 05:28:15;;;;;;;37.25;23.45;;;-5.90;76.40;;;;;;5113603;28;20445;-71
2024/01/09 05:30:41;;;;;;;37.03;23.20;;;-5.90;76.80;;;;;;5112175;28;20079;-71
2024/01/09 05:33:07;;;;;;;39.42;24.23;;;-5.90;76.80;;;;;;5113361;28;20027;-71
2024/01/09 05:35:32;;;;;;;38.40;22.75;;;-6.00;77.00;;;;;;5102494;28;20483;-73
2024/01/09 05:37:58;;;;;;;38.92;23.85;;;-6.00;77.50;;;;;;5098576;28;20412;-69
2024/01/09 05:40:24;;;;;;;36.60;23.77;;;-6.00;77.80;;;;;;5104767;28;20069;-68
2024/01/09 05:42:49;;;;;;;38.08;24.60;;;-6.00;77.80;;;;;;5103446;28;20024;-70
2024/01/09 05:45:15;;;;;;;35.55;23.35;;;-6.00;77.30;;;;;;5100377;28;20464;-70
2024/01/09 05:47:41;;;;;;;38.50;23.42;;;-6.10;77.40;;;;;;5106725;28;20024;-69
2024/01/09 05:50:08;;;;;;;40.58;24.73;;;-6.10;77.80;;;;;;5101296;28;20445;-70
2024/01/09 05:52:38;;;;;;;39.05;23.45;;;-6.10;77.80;;;;;;5099649;28;20039;-70
2024/01/09 05:55:04;;;;;;;39.03;25.15;;;-6.10;77.10;;;;;;5100435;28;20027;-71
2024/01/09 05:57:30;;;;;;;39.75;25.08;;;-6.10;76.70;;;;;;5098527;28;20407;-70
2024/01/09 05:59:57;;;;;;;35.95;22.83;;;-6.10;76.60;;;;;;5100237;28;20043;-70
2024/01/09 06:02:25;;;;;;;37.55;24.30;;;-6.10;76.50;;;;;;5108115;28;20051;-70
2024/01/09 06:04:51;;;;;;;40.85;24.13;;;-6.20;76.40;;;;;;5112353;28;20030;-71
2024/01/09 06:07:17;;;;;;;41.13;24.92;;;-6.20;76.50;;;;;;5112907;28;20063;-70
2024/01/09 06:09:43;;;;;;;39.58;24.67;;;-6.20;76.60;;;;;;5112868;28;20038;-70
2024/01/09 06:12:09;;;;;;;43.08;24.73;;;-6.20;76.60;;;;;;5094001;28;20040;-70
2024/01/09 06:14:34;;;;;;;44.25;25.13;;;-6.20;76.40;;;;;;5092449;28;20103;-72
2024/01/09 06:17:00;;;;;;;39.95;25.20;;;-6.20;76.50;;;;;;5091081;28;20028;-70
2024/01/09 06:19:26;;;;;;;42.72;24.73;;;-6.20;77.00;;;;;;5092178;28;20024;-70
2024/01/09 06:21:51;;;;;;;43.35;23.58;;;-6.10;77.10;;;;;;5091835;28;20036;-70
2024/01/09 06:24:17;;;;;;;38.78;23.50;;;-6.10;77.20;;;;;;5092385;28;20037;-70
2024/01/09 06:26:43;;;;;;;39.65;23.70;;;-6.10;77.30;;;;;;5091881;28;20035;-70
2024/01/09 06:29:09;;;;;;;36.42;23.85;;;-6.10;77.40;;;;;;5092025;28;20040;-70
2024/01/09 06:31:35;;;;;;;40.08;24.30;;;-6.10;77.50;;;;;;5092484;28;20026;-70
2024/01/09 06:34:01;;;;;;;39.92;24.55;;;-6.10;77.50;;;;;;5092023;28;20028;-71
2024/01/09 06:36:26;;;;;;;36.38;23.92;;;-6.10;77.40;;;;;;5091892;28;20029;-71
2024/01/09 06:38:52;;;;;;;38.65;24.25;;;-6.10;77.40;;;;;;5092003;28;20028;-70
2024/01/09 06:41:18;;;;;;;38.28;24.35;;;-6.20;77.30;;;;;;5092334;28;20380;-70
2024/01/09 06:43:44;;;;;;;39.95;24.85;;;-6.20;77.30;;;;;;5092279;28;20024;-72
2024/01/09 06:46:09;;;;;;;38.72;24.05;;;-6.20;77.20;;;;;;5091615;28;20480;-70
2024/01/09 06:48:35;;;;;;;39.83;25.27;;;-6.20;77.30;;;;;;5092269;28;20481;-71
2024/01/09 06:51:01;;;;;;;41.25;25.08;;;-6.20;77.60;;;;;;5091641;28;20036;-71
2024/01/09 06:53:26;;;;;;;43.92;25.08;;;-6.20;77.90;;;;;;5092467;28;20028;-71
2024/01/09 06:55:52;;;;;;;39.03;24.70;;;-6.30;77.90;;;;;;5094536;28;20060;-72
2024/01/09 06:58:18;;;;;;;39.95;24.85;;;-6.30;78.30;;;;;;5095321;28;20047;-71
2024/01/09 07:00:44;;;;;;;39.65;24.02;;;-6.30;78.70;;;;;;5095136;28;20052;-71
2024/01/09 07:03:10;;;;;;;42.58;24.10;;;-6.30;78.30;;;;;;5095088;28;20100;-70
2024/01/09 07:05:36;;;;;;;40.13;23.33;;;-6.30;78.40;;;;;;5095139;28;20016;-70
2024/01/09 07:08:03;;;;;;;43.28;22.45;;;-6.40;78.40;;;;;;5094656;28;20020;-70
2024/01/09 07:10:29;;;;;;;37.72;23.90;;;-6.40;78.60;;;;;;5095190;28;20099;-70
2024/01/09 07:12:54;;;;;;;38.40;21.48;;;-6.30;78.30;;;;;;5095311;28;20118;-70
2024/01/09 07:15:20;;;;;;;41.33;24.05;;;-6.30;78.40;;;;;;5095378;28;20020;-70
2024/01/09 07:17:46;;;;;;;40.85;25.05;;;-6.30;78.30;;;;;;5095119;28;20032;-70
2024/01/09 07:20:12;;;;;;;40.60;24.75;;;-6.30;78.10;;;;;;5093581;28;20073;-70
2024/01/09 07:22:37;;;;;;;41.95;24.58;;;-6.30;78.10;;;;;;5095072;28;20039;-68
2024/01/09 07:25:03;;;;;;;41.35;25.73;;;-6.30;77.90;;;;;;5094599;28;20020;-70
2024/01/09 07:27:29;;;;;;;38.20;24.30;;;-6.30;77.80;;;;;;5094627;28;20076;-70
2024/01/09 07:29:54;;;;;;;43.35;24.70;;;-6.30;77.90;;;;;;5094240;28;20464;-70
2024/01/09 07:32:21;;;;;;;40.05;24.75;;;-6.30;78.30;;;;;;5098074;28;20388;-70
2024/01/09 07:34:47;;;;;;;40.35;23.35;;;-6.20;78.00;;;;;;5094731;28;20030;-69
2024/01/09 07:37:13;;;;;;;41.67;25.40;;;-6.20;77.50;;;;;;5093112;28;20024;-69
2024/01/09 07:39:39;;;;;;;41.80;24.65;;;-6.20;77.20;;;;;;5094638;28;20028;-69
2024/01/09 07:42:05;;;;;;;45.30;26.25;;;-6.20;76.90;;;;;;5093636;28;20117;-70
2024/01/09 07:44:31;;;;;;;43.95;24.20;;;-6.20;76.80;;;;;;5093966;28;20020;-69
2024/01/09 07:46:56;;;;;;;45.97;23.83;;;-6.30;77.20;;;;;;5091294;28;20028;-70
2024/01/09 07:49:22;;;;;;;39.47;25.63;;;-6.30;77.00;;;;;;5094381;28;20070;-69
2024/01/09 07:51:48;;;;;;;46.13;24.25;;;-6.30;77.40;;;;;;5093926;28;20112;-70
2024/01/09 07:54:14;;;;;;;40.08;22.98;;;-6.20;77.90;;;;;;5088338;28;20020;-68
2024/01/09 07:56:39;;;;;;;42.45;25.83;;;-6.20;78.00;;;;;;5093182;28;20116;-69
2024/01/09 07:59:05;;;;;;;42.97;23.73;;;-6.10;78.10;;;;;;5093650;28;20044;-70
2024/01/09 08:01:31;;;;;;;41.78;25.25;;;-6.10;78.10;;;;;;5093989;28;20077;-69
2024/01/09 08:03:57;;;;;;;43.22;23.88;;;-6.10;77.30;;;;;;5094097;28;20040;-69
2024/01/09 08:06:23;;;;;;;39.33;23.42;;;-6.10;77.10;;;;;;5093399;28;20102;-71
2024/01/09 08:08:48;;;;;;;41.38;23.65;;;-6.10;77.10;;;;;;5094099;28;20111;-69
2024/01/09 08:11:14;;;;;;;43.08;23.08;;;-6.10;77.40;;;;;;5092963;28;20028;-70
2024/01/09 08:13:40;;;;;;;42.92;25.92;;;-6.00;78.00;;;;;;5091943;28;20525;-70
2024/01/09 08:16:08;;;;;;;43.17;25.45;;;-6.00;77.20;;;;;;5093546;28;20096;-70
2024/01/09 08:18:34;;;;;;;44.17;24.65;;;-6.00;77.10;;;;;;5093848;28;20024;-69
2024/01/09 08:21:00;;;;;;;47.88;26.73;;;-6.00;77.30;;;;;;5093262;28;20085;-72
2024/01/09 08:23:25;;;;;;;42.22;26.40;;;-6.00;77.30;;;;;;5093802;28;20020;-70
2024/01/09 08:25:51;;;;;;;44.47;25.38;;;-6.00;77.30;;;;;;5093184;28;20122;-69
2024/01/09 08:28:17;;;;;;;46.92;26.55;;;-6.00;77.20;;;;;;5093375;28;20028;-70
2024/01/09 08:30:43;;;;;;;47.70;25.52;;;-6.00;77.50;;;;;;5093682;28;20032;-72
2024/01/09 08:33:09;;;;;;;41.70;23.25;;;-5.90;77.40;;;;;;5093193;28;20050;-70
2024/01/09 08:35:34;;;;;;;42.53;22.90;;;-5.90;77.20;;;;;;5093677;28;20024;-69
2024/01/09 08:38:00;;;;;;;42.22;23.45;;;-5.90;77.20;;;;;;5093331;28;20032;-70
2024/01/09 08:40:26;;;;;;;42.15;23.58;;;-5.90;76.90;;;;;;5092551;28;20115;-69
2024/01/09 08:42:52;;;;;;;40.97;24.70;;;-5.80;76.90;;;;;;5093828;28;20028;-69
2024/01/09 08:45:18;;;;;;;40.88;25.50;;;-5.80;76.80;;;;;;5093421;28;20036;-70
2024/01/09 08:47:43;;;;;;;40.83;24.30;;;-5.80;76.60;;;;;;5093845;28;20476;-69
2024/01/09 08:50:09;;;;;;;45.53;23.88;;;-5.70;76.90;;;;;;5093416;28;20054;-70
2024/01/09 08:52:37;;;;;;;41.08;24.17;;;-5.60;76.90;;;;;;5093729;28;20102;-69
2024/01/09 08:55:04;;;;;;;42.92;24.80;;;-5.60;76.60;;;;;;5093034;28;20024;-72
2024/01/09 08:57:30;;;;;;;43.40;26.40;;;-5.50;76.50;;;;;;5093615;28;20089;-72
2024/01/09 08:59:58;;;;;;;39.45;24.48;;;-5.50;76.60;;;;;;5091761;28;20131;-70
2024/01/09 09:02:24;;;;;;;42.80;23.77;;;-5.50;76.10;;;;;;5093040;28;20506;-70
2024/01/09 09:04:51;;;;;;;42.97;26.08;;;-5.40;75.80;;;;;;5093121;28;20132;-70
2024/01/09 09:07:18;;;;;;;42.20;25.42;;;-5.30;75.20;;;;;;5092675;28;20024;-70
2024/01/09 09:09:44;;;;;;;39.25;24.35;;;-5.30;74.70;;;;;;5092959;28;20049;-70
2024/01/09 09:12:10;;;;;;;41.08;25.38;;;-5.30;74.30;;;;;;5092173;28;20102;-70
2024/01/09 09:14:36;;;;;;;38.95;25.10;;;-5.20;74.10;;;;;;5093374;28;20452;-70
2024/01/09 09:17:01;;;;;;;45.15;25.65;;;-5.20;73.90;;;;;;5092403;28;20031;-70
2024/01/09 09:19:27;;;;;;;44.90;25.38;;;-5.20;73.50;;;;;;5092396;28;20107;-70
2024/01/09 09:21:53;;;;;;;42.92;25.33;;;-5.20;73.40;;;;;;5093131;28;20112;-69
2024/01/09 09:24:19;;;;;;;45.88;25.52;;;-5.20;73.40;;;;;;5092445;28;20040;-71
2024/01/09 09:26:44;;;;;;;45.08;25.90;;;-5.20;73.70;;;;;;5092744;28;20031;-70
2024/01/09 09:29:10;;;;;;;40.85;23.80;;;-5.20;73.90;;;;;;5093076;28;20028;-70
2024/01/09 09:31:36;;;;;;;41.95;24.00;;;-5.20;73.90;;;;;;5092975;28;20469;-70
2024/01/09 09:34:01;;;;;;;41.80;24.65;;;-5.10;73.40;;;;;;5092701;28;20056;-70
2024/01/09 09:36:27;;;;;;;39.78;24.15;;;-5.10;72.80;;;;;;5092573;28;20028;-71
2024/01/09 09:38:53;;;;;;;42.42;24.20;;;-5.00;72.40;;;;;;5092742;28;20085;-71
2024/01/09 09:41:20;;;;;;;42.90;24.75;;;-5.00;72.60;;;;;;5092474;28;20071;-71
2024/01/09 09:43:54;;;;;;;46.72;25.30;;;-5.00;72.70;;;;;;5092562;28;20380;-71
2024/01/09 09:46:32;;;;;;;44.20;24.98;;;-4.90;72.70;;;;;;5092207;28;20476;-71
2024/01/09 09:48:58;;;;;;;47.67;26.00;;;-4.90;72.40;;;;;;5092901;28;20035;-70
2024/01/09 09:51:25;;;;;;;44.78;25.05;;;-4.80;72.40;;;;;;5092239;28;20056;-71
2024/01/09 09:53:53;;;;;;;45.20;24.70;;;-4.80;72.10;;;;;;5092413;28;20033;-71
2024/01/09 09:56:18;;;;;;;41.53;24.77;;;-4.70;71.80;;;;;;5092299;28;20051;-71
2024/01/09 09:58:44;;;;;;;43.45;24.02;;;-4.70;71.50;;;;;;5092473;28;20047;-70
2024/01/09 10:01:12;;;;;;;41.58;23.30;;;-4.60;71.10;;;;;;5092216;28;20053;-71
2024/01/09 10:04:07;;;;;;;40.58;23.75;;;-4.50;71.40;;;;;;5092715;28;20092;-71
2024/01/09 10:06:36;;;;;;;41.03;24.02;;;-4.40;71.10;;;;;;5068578;28;20491;-70
2024/01/09 10:09:03;;;;;;;44.88;25.83;;;-4.30;70.40;;;;;;5092557;28;20025;-70
2024/01/09 10:11:31;;;;;;;49.47;24.73;;;-4.20;70.00;;;;;;5092186;28;20141;-71
2024/01/09 10:13:57;;;;;;;39.63;22.98;;;-4.20;69.40;;;;;;5092603;28;20032;-69
2024/01/09 10:16:23;;;;;;;43.75;24.60;;;-4.10;69.50;;;;;;5092262;28;20039;-70
2024/01/09 10:18:48;;;;;;;42.92;23.88;;;-4.00;69.10;;;;;;5091243;28;20024;-70
2024/01/09 10:21:14;;;;;;;42.65;23.75;;;-4.00;69.00;;;;;;5091571;28;20036;-71
2024/01/09 10:23:40;;;;;;;40.38;23.83;;;-4.00;68.40;;;;;;5092117;28;20024;-71
2024/01/09 10:26:12;;;;;;;45.03;24.30;;;-3.90;68.90;;;;;;5092319;28;20024;-72
2024/01/09 10:28:38;;;;;;;43.80;23.05;;;-3.90;69.00;;;;;;5093024;28;20028;-71
2024/01/09 10:31:08;;;;;;;42.97;23.45;;;-3.90;69.20;;;;;;5096523;28;20028;-70
2024/01/09 10:33:37;;;;;;;41.60;22.77;;;-3.80;69.40;;;;;;5096017;28;20027;-71
2024/01/09 10:36:03;;;;;;;46.10;24.40;;;-3.80;69.20;;;;;;5096447;28;20078;-70
2024/01/09 10:38:29;;;;;;;48.95;25.35;;;-3.70;69.20;;;;;;5096254;28;20025;-70
2024/01/09 10:40:57;;;;;;;41.72;23.75;;;-3.70;69.00;;;;;;5096386;28;20036;-70
2024/01/09 10:43:26;;;;;;;43.60;24.02;;;-3.70;69.00;;;;;;5095813;28;20068;-71
2024/01/09 10:45:52;;;;;;;45.13;24.30;;;-3.70;68.80;;;;;;5096477;28;20161;-71
2024/01/09 10:48:22;;;;;;;46.97;24.77;;;-3.60;68.80;;;;;;5095773;28;20123;-71
2024/01/09 10:50:51;;;;;;;40.85;23.25;;;-3.60;68.90;;;;;;5096137;28;20468;-69
2024/01/09 10:53:23;;;;;;;45.08;23.13;;;-3.50;69.00;;;;;;5095744;28;20032;-71
2024/01/09 10:55:49;;;;;;;41.80;23.48;;;-3.50;68.20;;;;;;5095967;28;20217;-70
2024/01/09 10:58:17;;;;;;;45.60;22.83;;;-3.50;68.30;;;;;;5095264;28;20491;-70
2024/01/09 11:00:42;;;;;;;46.03;21.88;;;-3.40;68.40;;;;;;5095342;28;20051;-70
2024/01/09 11:03:08;;;;;;;47.13;21.55;;;-3.40;68.20;;;;;;5095343;28;20429;-71
2024/01/09 11:05:34;;;;;;;43.13;22.10;;;-3.40;68.00;;;;;;5095381;28;20427;-71
2024/01/09 11:08:01;;;;;;;42.67;22.23;;;-3.30;68.20;;;;;;5095731;28;20473;-70
2024/01/09 11:10:28;;;;;;;45.72;22.50;;;-3.30;68.20;;;;;;5094981;28;20107;-71
2024/01/09 11:12:54;;;;;;;42.05;22.17;;;-3.20;68.40;;;;;;5095750;28;20020;-72
2024/01/09 11:15:23;;;;;;;42.13;21.15;;;-3.20;68.10;;;;;;5095261;28;20032;-71
2024/01/09 11:18:05;;;;;;;41.50;21.63;;;-3.20;66.80;;;;;;5095670;28;20028;-71
2024/01/09 11:20:32;;;;;;;44.40;24.17;;;-3.20;67.00;;;;;;5095180;28;20505;-71
2024/01/09 11:22:57;;;;;;;41.47;21.63;;;-3.20;67.10;;;;;;5095564;28;20020;-71
2024/01/09 11:25:24;;;;;;;38.42;22.42;;;-3.20;67.60;;;;;;5095058;28;20444;-71
2024/01/09 11:27:51;;;;;;;43.63;23.23;;;-3.20;67.30;;;;;;5095224;28;20481;-70
2024/01/09 11:30:21;;;;;;;41.95;23.67;;;-3.20;66.90;;;;;;5094886;28;20020;-70
2024/01/09 11:32:47;;;;;;;45.13;23.50;;;-3.20;66.90;;;;;;5094430;28;20364;-71
2024/01/09 11:35:18;;;;;;;44.17;22.73;;;-3.10;66.80;;;;;;5094042;28;20027;-71
2024/01/09 11:37:49;;;;;;;49.13;25.40;;;-3.10;67.50;;;;;;5095313;28;20058;-71
2024/01/09 11:40:17;;;;;;;43.88;23.75;;;-3.10;67.40;;;;;;5096141;28;20028;-72
2024/01/09 11:42:52;;;;;;;43.90;24.50;;;-3.10;67.30;;;;;;5095212;28;20089;-70
2024/01/09 11:45:23;;;;;;;44.35;23.98;;;-3.10;66.80;;;;;;5094788;28;20031;-69
2024/01/09 11:47:49;;;;;;;42.00;22.80;;;-3.00;66.80;;;;;;5077571;28;20476;-71
2024/01/09 11:50:15;;;;;;;42.17;22.83;;;-2.90;66.70;;;;;;5095076;28;20255;-72
2024/01/09 11:52:42;;;;;;;41.67;21.15;;;-2.90;66.40;;;;;;5094588;28;20484;-71
2024/01/09 11:55:11;;;;;;;41.20;23.13;;;-2.80;66.30;;;;;;5094918;28;20028;-71
2024/01/09 11:57:39;;;;;;;42.38;23.08;;;-2.80;66.10;;;;;;5093129;28;20531;-71
2024/01/09 12:00:06;;;;;;;38.70;22.80;;;-2.70;65.90;;;;;;5094540;28;20280;-71
2024/01/09 12:02:38;;;;;;;42.63;22.67;;;-2.60;65.60;;;;;;5094063;28;20473;-71
2024/01/09 12:05:05;;;;;;;46.22;23.45;;;-2.60;65.30;;;;;;5094744;28;20358;-71
2024/01/09 12:07:35;;;;;;;41.97;22.63;;;-2.60;65.10;;;;;;5094249;28;20421;-72
2024/01/09 12:10:02;;;;;;;44.63;22.83;;;-2.50;65.10;;;;;;5094459;28;20449;-71
2024/01/09 12:12:28;;;;;;;41.72;22.00;;;-2.50;64.90;;;;;;5094032;28;20044;-71
2024/01/09 12:14:55;;;;;;;37.30;20.80;;;-2.50;64.50;;;;;;5094922;28;20146;-72
2024/01/09 12:17:36;;;;;;;38.92;21.80;;;-2.50;64.70;;;;;;5094112;28;20024;-72
2024/01/09 12:20:03;;;;;;;41.47;21.40;;;-2.50;64.40;;;;;;5094698;28;20035;-70
2024/01/09 12:22:33;;;;;;;47.17;21.58;;;-2.50;64.30;;;;;;5094069;28;20396;-72
2024/01/09 12:25:00;;;;;;;44.88;22.90;;;-2.50;64.20;;;;;;5094323;28;20024;-71